Time;durP1;ratioP1;P1;durP2;ratioP2;P2;SDS_P1;SDS_P2;PMS_P1;PMS_P2;Temp;Humidity;BMP_temperature;BMP_pressure;BME280_temperature;BME280_humidity;BME280_pressure;Samples;Min_cycle;Max_cycle;Signal;HPM_P1;HPM_P2
2023/01/10 00:00:51;;;;;;;11.57;2.85;;;4.30;99.90;;;;;;5021012;28;20060;-65
2023/01/10 00:03:17;;;;;;;13.15;2.78;;;4.30;99.90;;;;;;5018691;28;20064;-65
2023/01/10 00:05:43;;;;;;;14.98;3.08;;;4.30;99.90;;;;;;5017742;28;20049;-65
2023/01/10 00:08:14;;;;;;;23.95;3.63;;;4.30;99.90;;;;;;5019453;28;20067;-65
2023/01/10 00:10:40;;;;;;;19.15;3.40;;;4.30;99.90;;;;;;4999280;28;20129;-65
2023/01/10 00:13:24;;;;;;;14.82;3.13;;;4.20;99.90;;;;;;5024330;28;20080;-65
2023/01/10 00:15:55;;;;;;;17.98;3.50;;;4.20;99.90;;;;;;5022068;28;20487;-65
2023/01/10 00:18:21;;;;;;;18.20;3.05;;;4.20;99.90;;;;;;5022127;28;20140;-65
2023/01/10 00:20:48;;;;;;;16.90;3.05;;;4.20;99.90;;;;;;5023399;28;20045;-65
2023/01/10 00:23:16;;;;;;;21.13;4.30;;;4.20;99.90;;;;;;5020332;28;20049;-65
2023/01/10 00:25:41;;;;;;;17.45;3.45;;;4.20;99.90;;;;;;5025295;28;20045;-65
2023/01/10 00:30:42;;;;;;;21.17;3.55;;;4.10;99.90;;;;;;5023587;28;20056;-65
2023/01/10 00:33:09;;;;;;;23.73;3.72;;;4.10;99.90;;;;;;5025063;28;22067;-65
2023/01/10 00:35:35;;;;;;;24.83;3.58;;;4.20;99.90;;;;;;5042408;28;20052;-65
2023/01/10 00:38:04;;;;;;;19.63;3.05;;;4.20;99.90;;;;;;5012589;28;20127;-65
2023/01/10 00:40:31;;;;;;;19.02;3.55;;;4.30;99.90;;;;;;5026432;28;20075;-65
2023/01/10 00:45:52;;;;;;;22.90;3.45;;;4.30;99.90;;;;;;5019437;28;20487;-65
2023/01/10 00:48:18;;;;;;;22.83;3.60;;;4.30;99.90;;;;;;4990273;28;20072;-65
2023/01/10 00:50:45;;;;;;;20.00;3.53;;;4.30;99.90;;;;;;5024388;28;20083;-65
2023/01/10 00:53:11;;;;;;;21.85;4.05;;;4.30;99.90;;;;;;5026255;28;20644;-65
2023/01/10 00:55:36;;;;;;;23.95;3.60;;;4.30;99.90;;;;;;5024769;28;20186;-65
2023/01/10 00:58:03;;;;;;;23.58;3.63;;;4.30;99.90;;;;;;5010129;28;20049;-65
2023/01/10 01:00:29;;;;;;;18.45;3.80;;;4.40;99.90;;;;;;5008449;28;20055;-66
2023/01/10 01:02:55;;;;;;;19.45;4.00;;;4.40;99.90;;;;;;5025530;28;20394;-65
2023/01/10 01:05:21;;;;;;;22.70;3.80;;;4.50;99.90;;;;;;5018542;28;20053;-65
2023/01/10 01:07:48;;;;;;;29.95;4.10;;;4.50;99.90;;;;;;5019337;28;20056;-65
2023/01/10 01:10:27;;;;;;;15.52;3.47;;;4.50;99.90;;;;;;5010542;28;20060;-66
2023/01/10 01:12:59;;;;;;;23.40;3.80;;;4.60;99.90;;;;;;5026554;28;20103;-65
2023/01/10 01:15:26;;;;;;;23.10;3.60;;;4.60;99.90;;;;;;5002671;28;20157;-65
2023/01/10 01:17:53;;;;;;;27.95;3.85;;;4.70;99.90;;;;;;5023356;28;20052;-66
2023/01/10 01:20:20;;;;;;;21.25;3.95;;;4.80;99.90;;;;;;5016957;28;20048;-65
2023/01/10 01:22:46;;;;;;;21.23;3.70;;;4.80;99.90;;;;;;5010756;28;20117;-65
2023/01/10 01:25:12;;;;;;;23.45;4.53;;;4.90;99.90;;;;;;5040486;28;20041;-65
2023/01/10 01:27:38;;;;;;;17.80;3.17;;;4.90;99.90;;;;;;5025495;28;20041;-65
2023/01/10 01:30:08;;;;;;;19.88;3.38;;;4.90;99.90;;;;;;5041714;28;20052;-65
2023/01/10 01:32:34;;;;;;;19.00;3.75;;;4.90;99.90;;;;;;5027363;28;20472;-65
2023/01/10 01:35:00;;;;;;;17.15;3.13;;;4.90;99.90;;;;;;5026278;28;20099;-65
2023/01/10 01:37:26;;;;;;;21.88;3.92;;;4.90;99.90;;;;;;5029167;28;20053;-65
2023/01/10 01:39:52;;;;;;;27.83;4.35;;;4.90;99.90;;;;;;5026696;28;20060;-65
2023/01/10 01:42:27;;;;;;;29.55;3.90;;;4.80;99.90;;;;;;5026501;28;20076;-65
2023/01/10 01:45:08;;;;;;;24.52;4.70;;;4.80;99.90;;;;;;5004761;28;20040;-65
2023/01/10 01:47:48;;;;;;;23.73;4.35;;;4.80;99.90;;;;;;5027343;28;20059;-65
2023/01/10 01:50:15;;;;;;;22.15;3.83;;;4.80;99.90;;;;;;5007812;28;20147;-65
2023/01/10 01:52:41;;;;;;;26.77;4.10;;;4.80;99.90;;;;;;5029652;28;20045;-65
2023/01/10 01:55:07;;;;;;;23.40;4.45;;;4.80;99.90;;;;;;5026278;28;20068;-65
2023/01/10 01:57:34;;;;;;;24.70;3.92;;;4.80;99.90;;;;;;5035701;28;20521;-65
2023/01/10 02:00:01;;;;;;;22.42;4.40;;;4.80;99.90;;;;;;5003512;28;20050;-65
2023/01/10 02:02:38;;;;;;;19.83;3.88;;;4.80;99.90;;;;;;5013347;28;20049;-65
2023/01/10 02:05:06;;;;;;;23.65;3.83;;;4.80;99.90;;;;;;5023217;28;20047;-65
2023/01/10 02:07:40;;;;;;;18.13;4.13;;;4.80;99.90;;;;;;5025569;28;20071;-65
2023/01/10 02:11:01;;;;;;;30.20;4.28;;;4.90;99.90;;;;;;5015091;28;20076;-65
2023/01/10 02:13:27;;;;;;;18.65;4.30;;;4.90;99.90;;;;;;5020631;28;20056;-65
2023/01/10 02:15:53;;;;;;;23.45;3.78;;;4.90;99.90;;;;;;5021146;28;20186;-65
2023/01/10 02:18:21;;;;;;;18.45;3.42;;;4.90;99.90;;;;;;5007243;28;20123;-65
2023/01/10 02:21:06;;;;;;;30.83;4.22;;;4.90;99.90;;;;;;5021642;28;20072;-65
2023/01/10 02:24:09;;;;;;;20.67;3.47;;;5.00;99.90;;;;;;5017993;28;20365;-65
2023/01/10 02:26:37;;;;;;;23.73;4.17;;;4.90;99.90;;;;;;5020789;28;20053;-65
2023/01/10 02:29:38;;;;;;;16.05;3.47;;;5.00;99.90;;;;;;5023392;28;20045;-65
2023/01/10 02:32:14;;;;;;;18.42;3.30;;;5.00;99.90;;;;;;5022958;28;20072;-65
2023/01/10 02:35:11;;;;;;;20.48;3.50;;;5.00;99.90;;;;;;5022589;28;20057;-65
2023/01/10 02:37:58;;;;;;;18.42;3.70;;;5.00;99.90;;;;;;5025280;28;20407;-65
2023/01/10 02:40:30;;;;;;;20.83;3.67;;;5.10;99.90;;;;;;5019993;28;20169;-65
2023/01/10 02:43:15;;;;;;;16.23;2.80;;;5.10;99.90;;;;;;5023790;28;20076;-65
2023/01/10 02:45:56;;;;;;;20.30;3.47;;;5.10;99.90;;;;;;5013957;28;20155;-65
2023/01/10 02:48:22;;;;;;;22.45;3.70;;;5.10;99.90;;;;;;5021337;28;20060;-65
2023/01/10 02:51:15;;;;;;;16.83;3.38;;;5.10;99.90;;;;;;5005540;28;20415;-65
2023/01/10 02:53:46;;;;;;;18.85;3.45;;;5.10;99.90;;;;;;4999088;28;20056;-65
2023/01/10 02:56:39;;;;;;;24.02;3.92;;;5.10;99.90;;;;;;5006855;28;20044;-65
2023/01/10 02:59:23;;;;;;;22.67;3.90;;;5.10;99.90;;;;;;5014689;28;20138;-65
2023/01/10 03:02:01;;;;;;;16.23;3.25;;;5.10;99.90;;;;;;5023885;28;20053;-65
2023/01/10 03:04:44;;;;;;;24.15;3.65;;;5.20;99.90;;;;;;5037950;28;20040;-65
2023/01/10 03:07:58;;;;;;;20.52;3.60;;;5.20;99.90;;;;;;5019272;28;20061;-65
2023/01/10 03:10:29;;;;;;;;;;;5.20;99.90;;;;;;5004173;28;20045;-65
2023/01/10 03:13:25;;;;;;;20.00;3.72;;;5.20;99.90;;;;;;5022765;28;19920;-65
2023/01/10 03:15:53;;;;;;;21.33;4.55;;;5.20;99.90;;;;;;5004769;28;20084;-65
2023/01/10 03:18:35;;;;;;;23.08;3.65;;;5.20;99.90;;;;;;5022606;28;20144;-65
2023/01/10 03:21:04;;;;;;;19.23;4.33;;;5.20;99.90;;;;;;5019316;28;20226;-65
2023/01/10 03:23:32;;;;;;;22.15;4.15;;;5.20;99.90;;;;;;5005580;28;20045;-65
2023/01/10 03:25:59;;;;;;;27.83;4.18;;;5.20;99.90;;;;;;5010081;28;20041;-65
2023/01/10 03:28:34;;;;;;;21.00;3.33;;;5.20;99.90;;;;;;5024671;28;20047;-65
2023/01/10 03:31:12;;;;;;;22.35;4.32;;;5.20;99.90;;;;;;5022936;28;20044;-65
2023/01/10 03:33:39;;;;;;;18.63;3.78;;;5.20;99.90;;;;;;5026192;28;20143;-65
2023/01/10 03:36:29;;;;;;;22.50;4.30;;;5.20;99.90;;;;;;5023752;28;20045;-65
2023/01/10 03:39:33;;;;;;;16.38;3.53;;;5.30;99.90;;;;;;5024706;28;20056;-65
2023/01/10 03:42:12;;;;;;;22.48;4.15;;;5.30;99.90;;;;;;5025604;28;20040;-65
2023/01/10 03:44:47;;;;;;;27.80;3.88;;;5.30;99.90;;;;;;5024998;28;20115;-65
2023/01/10 03:47:12;;;;;;;19.45;3.38;;;5.40;99.90;;;;;;5010914;28;20076;-65
2023/01/10 03:49:42;;;;;;;17.50;3.75;;;5.40;99.90;;;;;;5039200;28;20085;-65
2023/01/10 03:52:12;;;;;;;22.70;4.03;;;5.40;99.90;;;;;;5006983;28;20563;-65
2023/01/10 03:54:40;;;;;;;25.83;4.63;;;5.50;99.90;;;;;;5015518;28;20116;-65
2023/01/10 03:57:06;;;;;;;23.85;4.30;;;5.50;99.90;;;;;;5021281;28;20186;-65
2023/01/10 03:59:33;;;;;;;18.30;4.00;;;5.50;99.90;;;;;;4997521;28;20041;-65
2023/01/10 04:01:58;;;;;;;30.52;4.85;;;5.50;99.90;;;;;;5006312;28;20045;-65
2023/01/10 04:04:24;;;;;;;30.15;4.38;;;5.50;99.90;;;;;;5004208;28;20055;-65
2023/01/10 04:06:50;;;;;;;20.45;3.83;;;5.50;99.90;;;;;;5005525;28;20049;-65
2023/01/10 04:09:16;;;;;;;20.08;3.58;;;5.50;99.90;;;;;;4997497;28;20153;-65
2023/01/10 04:11:42;;;;;;;14.82;4.00;;;5.40;99.90;;;;;;5021865;28;20055;-65
2023/01/10 04:14:07;;;;;;;16.38;3.40;;;5.40;99.90;;;;;;5007179;28;20052;-65
2023/01/10 04:16:33;;;;;;;24.90;4.18;;;5.40;99.90;;;;;;5009792;28;20059;-65
2023/01/10 04:18:59;;;;;;;22.27;3.75;;;5.30;99.90;;;;;;5006176;28;20528;-65
2023/01/10 04:21:25;;;;;;;19.88;3.90;;;5.40;99.90;;;;;;5019578;28;20057;-65
2023/01/10 04:23:51;;;;;;;28.08;4.30;;;5.30;99.90;;;;;;5004812;28;20044;-65
2023/01/10 04:26:16;;;;;;;24.75;4.85;;;5.30;99.90;;;;;;5024135;28;20059;-66
2023/01/10 04:28:42;;;;;;;24.75;4.47;;;5.30;99.90;;;;;;5025675;28;20037;-65
2023/01/10 04:31:08;;;;;;;33.22;4.60;;;5.30;99.90;;;;;;5025147;28;20049;-65
2023/01/10 04:33:34;;;;;;;19.50;3.60;;;5.40;99.90;;;;;;5023093;28;20056;-65
2023/01/10 04:36:00;;;;;;;14.95;3.65;;;5.30;99.90;;;;;;5040321;28;20087;-65
2023/01/10 04:38:26;;;;;;;30.08;4.43;;;5.30;99.90;;;;;;5009141;28;20045;-65
2023/01/10 04:40:55;;;;;;;16.17;3.47;;;5.30;99.90;;;;;;5025169;28;20080;-65
2023/01/10 04:43:22;;;;;;;21.30;3.70;;;5.30;99.90;;;;;;5025000;28;20044;-65
2023/01/10 04:45:48;;;;;;;26.17;3.88;;;5.30;99.90;;;;;;5008509;28;20128;-65
2023/01/10 04:48:14;;;;;;;17.98;4.05;;;5.30;99.90;;;;;;5018014;28;20132;-65
2023/01/10 04:50:40;;;;;;;18.90;3.97;;;5.30;99.90;;;;;;5007311;28;20487;-65
2023/01/10 04:53:06;;;;;;;24.48;4.32;;;5.40;99.90;;;;;;5009907;28;20045;-65
2023/01/10 04:55:32;;;;;;;21.67;4.63;;;5.40;99.90;;;;;;5023895;28;20049;-65
2023/01/10 04:57:59;;;;;;;18.85;4.22;;;5.40;99.90;;;;;;5023618;28;20049;-65
2023/01/10 05:00:25;;;;;;;25.23;4.82;;;5.30;99.90;;;;;;5020917;28;20574;-65
2023/01/10 05:02:55;;;;;;;26.67;4.60;;;5.40;99.90;;;;;;5041134;28;20044;-65
2023/01/10 05:05:21;;;;;;;21.23;4.20;;;5.50;99.90;;;;;;4989936;28;20551;-65
2023/01/10 05:07:47;;;;;;;30.27;4.97;;;5.50;99.90;;;;;;5021210;28;20131;-65
2023/01/10 05:10:13;;;;;;;22.75;4.88;;;5.40;99.90;;;;;;5037565;28;20056;-65
2023/01/10 05:12:39;;;;;;;25.88;4.85;;;5.40;99.90;;;;;;5021768;28;20442;-65
2023/01/10 05:15:05;;;;;;;18.10;3.88;;;5.50;99.90;;;;;;5006826;28;20923;-65
2023/01/10 05:17:31;;;;;;;21.48;3.60;;;5.40;99.90;;;;;;5044554;28;20072;-65
2023/01/10 05:19:57;;;;;;;17.75;4.10;;;5.50;99.90;;;;;;5041385;28;20120;-65
2023/01/10 05:22:23;;;;;;;20.88;3.72;;;5.40;99.90;;;;;;5027848;28;20041;-65
2023/01/10 05:24:49;;;;;;;21.77;3.75;;;5.50;99.90;;;;;;5025568;28;20128;-65
2023/01/10 05:27:15;;;;;;;20.70;3.75;;;5.50;99.90;;;;;;5026359;28;20131;-65
2023/01/10 05:29:42;;;;;;;21.70;3.55;;;5.50;99.90;;;;;;5024569;28;20059;-65
2023/01/10 05:32:08;;;;;;;17.77;3.38;;;5.50;99.90;;;;;;5027659;28;20041;-65
2023/01/10 05:34:34;;;;;;;21.15;3.65;;;5.50;99.90;;;;;;5025240;28;20060;-65
2023/01/10 05:37:00;;;;;;;19.73;3.42;;;5.50;99.90;;;;;;5022133;28;20098;-65
2023/01/10 05:39:25;;;;;;;23.45;3.35;;;5.60;99.90;;;;;;5024102;28;20083;-65
2023/01/10 05:41:51;;;;;;;19.17;3.60;;;5.60;99.90;;;;;;5026399;28;20127;-65
2023/01/10 05:44:17;;;;;;;17.13;3.53;;;5.60;99.90;;;;;;4986386;28;20044;-65
2023/01/10 05:46:43;;;;;;;12.85;3.70;;;5.60;99.90;;;;;;5032215;28;20119;-65
2023/01/10 05:49:08;;;;;;;20.92;3.60;;;5.60;99.90;;;;;;5009736;28;20037;-65
2023/01/10 05:51:34;;;;;;;17.90;3.60;;;5.60;99.90;;;;;;5026149;28;20067;-65
2023/01/10 05:54:00;;;;;;;25.67;4.22;;;5.70;99.90;;;;;;5007710;28;20161;-65
2023/01/10 05:56:26;;;;;;;22.08;3.63;;;5.60;99.90;;;;;;5022519;28;20137;-65
2023/01/10 05:58:52;;;;;;;16.63;3.65;;;5.70;99.90;;;;;;5025470;28;20048;-65
2023/01/10 06:01:17;;;;;;;14.90;3.25;;;5.70;99.90;;;;;;5001207;28;20091;-65
2023/01/10 06:03:43;;;;;;;15.48;3.33;;;5.60;99.90;;;;;;5032697;28;20069;-65
2023/01/10 06:06:09;;;;;;;14.15;3.08;;;5.60;99.90;;;;;;5004008;28;20124;-65
2023/01/10 06:08:35;;;;;;;17.25;3.35;;;5.60;99.90;;;;;;5007939;28;20080;-65
2023/01/10 06:11:03;;;;;;;17.02;3.63;;;5.60;99.90;;;;;;5022993;28;20122;-65
2023/01/10 06:13:28;;;;;;;18.30;3.47;;;5.60;99.90;;;;;;5013599;28;20831;-65
2023/01/10 06:15:54;;;;;;;24.08;3.58;;;5.50;99.90;;;;;;5020507;28;20053;-65
2023/01/10 06:18:20;;;;;;;22.17;3.33;;;5.50;99.90;;;;;;5022820;28;20048;-65
2023/01/10 06:20:46;;;;;;;15.75;3.58;;;5.50;99.90;;;;;;5009459;28;20041;-65
2023/01/10 06:23:11;;;;;;;9.48;2.92;;;5.50;99.90;;;;;;5027281;28;20049;-65
2023/01/10 06:25:40;;;;;;;12.57;3.40;;;5.40;99.90;;;;;;4998357;28;20045;-65
2023/01/10 06:28:07;;;;;;;19.52;3.80;;;5.40;99.90;;;;;;5013163;28;20076;-65
2023/01/10 06:30:34;;;;;;;16.17;3.28;;;5.40;99.90;;;;;;5024192;28;20482;-65
2023/01/10 06:33:05;;;;;;;13.43;3.42;;;5.40;99.90;;;;;;5018355;28;20041;-65
2023/01/10 06:35:31;;;;;;;15.00;3.20;;;5.40;99.90;;;;;;5020417;28;20049;-65
2023/01/10 06:37:58;;;;;;;10.25;2.95;;;5.40;99.90;;;;;;5016517;28;20102;-65
2023/01/10 06:40:24;;;;;;;14.93;2.95;;;5.30;99.90;;;;;;4999868;28;20051;-65
2023/01/10 06:42:50;;;;;;;13.60;2.95;;;5.30;99.90;;;;;;5021046;28;20041;-65
2023/01/10 06:45:16;;;;;;;11.48;2.80;;;5.30;99.90;;;;;;5002056;28;20076;-65
2023/01/10 06:47:43;;;;;;;13.52;2.45;;;5.20;99.90;;;;;;5022662;28;20052;-65
2023/01/10 06:50:09;;;;;;;10.77;2.55;;;5.20;99.90;;;;;;5021943;28;20178;-65
2023/01/10 06:52:35;;;;;;;11.45;2.47;;;5.10;99.90;;;;;;5020912;28;20049;-65
2023/01/10 06:55:01;;;;;;;12.20;2.63;;;5.00;99.90;;;;;;4994506;28;22727;-65
2023/01/10 06:57:32;;;;;;;9.90;2.30;;;5.00;99.90;;;;;;5019299;28;20126;-59
2023/01/10 06:59:58;;;;;;;12.50;2.65;;;5.00;99.90;;;;;;5038918;28;20041;-58
2023/01/10 07:02:24;;;;;;;9.77;2.03;;;4.90;99.90;;;;;;5036603;28;20131;-58
2023/01/10 07:04:50;;;;;;;10.57;2.63;;;4.90;99.90;;;;;;5042010;28;21008;-57
2023/01/10 07:07:16;;;;;;;11.80;2.28;;;4.90;99.90;;;;;;5028008;28;20177;-58
2023/01/10 07:09:42;;;;;;;12.70;2.65;;;4.90;99.90;;;;;;5026373;28;20056;-58
2023/01/10 07:12:07;;;;;;;14.90;2.80;;;4.80;99.90;;;;;;5044466;28;20098;-58
2023/01/10 07:14:33;;;;;;;10.43;2.60;;;4.80;99.90;;;;;;5046840;28;20640;-58
2023/01/10 07:16:59;;;;;;;17.80;2.72;;;4.90;99.90;;;;;;5043084;28;20055;-58
2023/01/10 07:19:25;;;;;;;19.23;3.38;;;4.90;99.90;;;;;;5024420;28;20136;-58
2023/01/10 07:21:51;;;;;;;14.30;3.80;;;4.90;99.90;;;;;;5022377;28;20045;-59
2023/01/10 07:24:17;;;;;;;20.52;3.75;;;5.00;99.90;;;;;;5023946;28;20127;-58
2023/01/10 07:26:42;;;;;;;18.13;3.47;;;5.00;99.90;;;;;;5045954;28;20047;-58
2023/01/10 07:29:08;;;;;;;14.90;3.70;;;5.10;99.90;;;;;;5044385;28;20123;-58
2023/01/10 07:31:34;;;;;;;22.02;4.47;;;5.10;99.90;;;;;;5042189;28;20057;-59
2023/01/10 07:34:00;;;;;;;22.38;4.05;;;5.20;99.90;;;;;;5043302;28;20477;-57
2023/01/10 07:36:26;;;;;;;22.42;4.72;;;5.20;99.90;;;;;;5026092;28;20168;-58
2023/01/10 07:38:52;;;;;;;30.00;4.35;;;5.20;99.90;;;;;;5027496;28;20049;-58
2023/01/10 07:41:17;;;;;;;25.83;4.07;;;5.20;99.90;;;;;;5045109;28;20040;-58
2023/01/10 07:43:43;;;;;;;23.67;5.85;;;5.30;99.90;;;;;;5043142;28;20037;-57
2023/01/10 07:46:10;;;;;;;27.33;4.53;;;5.30;99.90;;;;;;5043534;28;20132;-58
2023/01/10 07:48:37;;;;;;;22.60;4.85;;;5.30;99.90;;;;;;5037849;28;20071;-58
2023/01/10 07:51:04;;;;;;;26.05;5.07;;;5.30;99.90;;;;;;5041178;28;20395;-58
2023/01/10 07:53:30;;;;;;;29.17;5.72;;;5.30;99.90;;;;;;5026495;28;22764;-58
2023/01/10 07:56:01;;;;;;;31.00;5.85;;;5.30;99.90;;;;;;5041922;28;20063;-58
2023/01/10 07:58:28;;;;;;;36.08;7.22;;;5.30;99.90;;;;;;5043422;28;21205;-58
2023/01/10 08:01:01;;;;;;;31.25;6.93;;;5.30;99.90;;;;;;5041588;28;20045;-59
2023/01/10 08:03:28;;;;;;;25.38;6.47;;;5.40;99.90;;;;;;5028257;28;20087;-58
2023/01/10 08:05:58;;;;;;;38.78;6.78;;;5.40;99.90;;;;;;5048198;28;20450;-58
2023/01/10 08:08:24;;;;;;;27.13;6.18;;;5.40;99.90;;;;;;5048989;28;20498;-58
2023/01/10 08:10:50;;;;;;;27.90;6.25;;;5.50;99.90;;;;;;5044132;28;20052;-58
2023/01/10 08:13:16;;;;;;;39.30;6.68;;;5.50;99.90;;;;;;5028045;28;20059;-57
2023/01/10 08:15:42;;;;;;;26.23;5.70;;;5.50;99.90;;;;;;5028598;28;20056;-58
2023/01/10 08:18:07;;;;;;;36.08;5.78;;;5.50;99.90;;;;;;5046138;28;20506;-57
2023/01/10 08:20:33;;;;;;;33.90;6.75;;;5.50;99.90;;;;;;5050442;28;20056;-58
2023/01/10 08:22:59;;;;;;;31.48;7.10;;;5.50;99.90;;;;;;5048191;28;20462;-58
2023/01/10 08:25:25;;;;;;;34.13;7.30;;;5.50;99.90;;;;;;5048477;28;20068;-58
2023/01/10 08:27:51;;;;;;;42.55;7.25;;;5.40;99.90;;;;;;5044785;28;20037;-58
2023/01/10 08:30:17;;;;;;;30.85;6.65;;;5.50;99.90;;;;;;5021417;28;20545;-59
2023/01/10 08:32:43;;;;;;;32.05;6.07;;;5.50;99.90;;;;;;5052860;28;20048;-58
2023/01/10 08:35:10;;;;;;;27.75;6.25;;;5.50;99.90;;;;;;5047149;28;20136;-58
2023/01/10 08:37:36;;;;;;;30.35;6.70;;;5.50;99.90;;;;;;5047469;28;20040;-58
2023/01/10 08:40:02;;;;;;;33.25;7.25;;;5.50;99.90;;;;;;5028690;28;20056;-58
2023/01/10 08:42:28;;;;;;;40.72;7.63;;;5.50;99.90;;;;;;5015473;28;20044;-58
2023/01/10 08:44:54;;;;;;;32.05;6.50;;;5.50;99.90;;;;;;5047636;28;20041;-58
2023/01/10 08:47:20;;;;;;;31.98;6.25;;;5.50;99.90;;;;;;5050147;28;20045;-57
2023/01/10 08:49:48;;;;;;;37.45;6.75;;;5.50;99.90;;;;;;5046356;28;20056;-56
2023/01/10 08:52:15;;;;;;;32.13;6.13;;;5.50;99.90;;;;;;5044045;28;20076;-58
2023/01/10 08:54:40;;;;;;;34.78;6.55;;;5.50;99.90;;;;;;5042820;28;20098;-58
2023/01/10 08:57:06;;;;;;;35.80;6.22;;;5.50;99.90;;;;;;5030880;28;20040;-62
2023/01/10 08:59:32;;;;;;;36.22;6.63;;;5.60;99.90;;;;;;5051340;28;20047;-58
2023/01/10 09:01:58;;;;;;;35.10;7.03;;;5.60;99.90;;;;;;5047465;28;20060;-57
2023/01/10 09:04:27;;;;;;;31.65;6.32;;;5.70;99.90;;;;;;5047731;28;20045;-58
2023/01/10 09:06:53;;;;;;;39.28;6.65;;;5.70;99.90;;;;;;5047962;28;20500;-58
2023/01/10 09:09:19;;;;;;;33.42;6.95;;;5.70;99.90;;;;;;5046797;28;20179;-57
2023/01/10 09:11:45;;;;;;;36.97;6.38;;;5.70;99.90;;;;;;5045463;28;20087;-58
2023/01/10 09:14:11;;;;;;;33.20;6.57;;;5.80;99.90;;;;;;5044399;28;20037;-58
2023/01/10 09:16:37;;;;;;;30.83;6.72;;;5.70;99.90;;;;;;5046935;28;20049;-58
2023/01/10 09:19:02;;;;;;;32.35;5.88;;;5.70;99.90;;;;;;5014598;28;21036;-59
2023/01/10 09:21:28;;;;;;;39.03;6.97;;;5.70;99.90;;;;;;5045115;28;20077;-58
2023/01/10 09:23:54;;;;;;;33.42;6.20;;;5.70;99.90;;;;;;5048741;28;20037;-58
2023/01/10 09:26:20;;;;;;;37.17;6.43;;;5.80;99.90;;;;;;5045685;28;20137;-58
2023/01/10 09:28:46;;;;;;;30.45;5.30;;;5.80;99.90;;;;;;5042656;28;20518;-58
2023/01/10 09:31:11;;;;;;;34.53;5.53;;;5.80;99.90;;;;;;5042437;28;20416;-58
2023/01/10 09:33:40;;;;;;;37.45;6.07;;;5.90;99.90;;;;;;5043456;28;20564;-58
2023/01/10 09:36:07;;;;;;;30.00;4.95;;;6.00;99.90;;;;;;5046578;28;20120;-58
2023/01/10 09:38:33;;;;;;;23.42;5.07;;;6.00;99.90;;;;;;5045059;28;20060;-58
2023/01/10 09:41:11;;;;;;;29.00;5.13;;;6.00;99.90;;;;;;5045599;28;20496;-58
2023/01/10 09:43:45;;;;;;;28.20;5.30;;;6.00;99.90;;;;;;5029110;28;20053;-58
2023/01/10 09:46:17;;;;;;;34.60;6.20;;;6.00;99.90;;;;;;5040938;28;20091;-57
2023/01/10 09:48:48;;;;;;;24.02;5.07;;;6.00;99.90;;;;;;5036678;28;20082;-58
2023/01/10 09:51:39;;;;;;;35.10;5.68;;;6.10;99.90;;;;;;5045681;28;20523;-59
2023/01/10 09:54:12;;;;;;;24.45;5.90;;;6.10;99.90;;;;;;5043704;28;20106;-59
2023/01/10 09:56:39;;;;;;;27.58;5.47;;;6.10;99.90;;;;;;5043890;28;20080;-58
2023/01/10 09:59:10;;;;;;;24.08;5.25;;;6.20;99.90;;;;;;5046948;28;20045;-58
2023/01/10 10:01:36;;;;;;;28.90;5.13;;;6.20;99.90;;;;;;5044750;28;20076;-58
2023/01/10 10:04:21;;;;;;;21.13;5.00;;;6.20;99.90;;;;;;5038296;28;20480;-58
2023/01/10 10:06:50;;;;;;;28.63;5.40;;;6.20;99.90;;;;;;5035383;28;20134;-57
2023/01/10 10:09:25;;;;;;;26.15;5.30;;;6.30;99.90;;;;;;5032406;28;20084;-58
2023/01/10 10:12:29;;;;;;;29.58;5.55;;;6.30;99.90;;;;;;5043809;28;20418;-59
2023/01/10 10:15:00;;;;;;;;;;;6.30;99.90;;;;;;5010794;28;20193;-58
2023/01/10 10:17:39;;;;;;;32.58;5.05;;;6.40;99.90;;;;;;5022096;28;19932;-58
2023/01/10 10:20:17;;;;;;;26.25;5.88;;;6.40;99.90;;;;;;5044168;28;20048;-58
2023/01/10 10:23:01;;;;;;;35.13;6.00;;;6.50;99.90;;;;;;5045154;28;20056;-58
2023/01/10 10:25:46;;;;;;;30.98;6.10;;;6.50;99.90;;;;;;5021610;28;20398;-57
2023/01/10 10:28:38;;;;;;;36.13;5.95;;;6.50;99.90;;;;;;5044038;28;20041;-58
2023/01/10 10:31:28;;;;;;;27.63;5.93;;;6.50;99.90;;;;;;5044524;28;20049;-58
2023/01/10 10:34:20;;;;;;;28.80;5.70;;;6.60;99.90;;;;;;5039920;28;20140;-57
2023/01/10 10:37:32;;;;;;;34.85;7.00;;;6.60;99.90;;;;;;5042967;28;20047;-59
2023/01/10 10:40:25;;;;;;;32.55;7.05;;;6.60;99.90;;;;;;4978587;28;20684;-58
2023/01/10 10:42:54;;;;;;;32.47;6.43;;;6.60;99.90;;;;;;4979906;28;20126;-58
2023/01/10 10:45:38;;;;;;;32.80;6.10;;;6.60;99.90;;;;;;5021033;28;20456;-58
2023/01/10 10:48:32;;;;;;;30.35;5.18;;;6.70;99.90;;;;;;5047667;28;20049;-58
2023/01/10 10:51:01;;;;;;;32.80;5.70;;;6.70;99.90;;;;;;5047616;28;20399;-58
2023/01/10 10:53:28;;;;;;;24.08;5.78;;;6.70;99.90;;;;;;5020757;28;20434;-59
2023/01/10 10:55:55;;;;;;;36.88;6.47;;;6.70;99.90;;;;;;5021444;28;20119;-58
2023/01/10 10:58:21;;;;;;;33.28;6.10;;;6.70;99.90;;;;;;5044681;28;20082;-58
2023/01/10 11:00:47;;;;;;;24.05;6.20;;;6.80;99.90;;;;;;5044215;28;20051;-58
2023/01/10 11:03:56;;;;;;;32.60;5.75;;;6.80;99.90;;;;;;5042810;28;20045;-58
2023/01/10 11:06:28;;;;;;;30.65;6.20;;;6.80;99.90;;;;;;5029516;28;20523;-59
2023/01/10 11:09:01;;;;;;;23.60;5.43;;;6.90;99.90;;;;;;5043092;28;20551;-58
2023/01/10 11:11:32;;;;;;;25.70;4.80;;;6.90;99.90;;;;;;5042304;28;20037;-58
2023/01/10 11:14:04;;;;;;;31.05;5.82;;;6.90;99.90;;;;;;5044114;28;20040;-58
2023/01/10 11:16:41;;;;;;;26.75;5.32;;;6.90;99.90;;;;;;5042806;28;20059;-58
2023/01/10 11:19:17;;;;;;;31.20;5.78;;;6.90;99.90;;;;;;5036771;28;20049;-58
2023/01/10 11:21:55;;;;;;;27.60;6.10;;;6.90;99.90;;;;;;5038982;28;20760;-57
2023/01/10 11:24:31;;;;;;;28.77;6.13;;;6.90;99.90;;;;;;5043629;28;20049;-58
2023/01/10 11:27:01;;;;;;;39.60;6.60;;;7.00;99.90;;;;;;5043791;28;20499;-58
2023/01/10 11:29:38;;;;;;;34.78;6.95;;;7.00;99.90;;;;;;5042034;28;20118;-59
2023/01/10 11:32:13;;;;;;;29.17;6.97;;;7.00;99.90;;;;;;5038030;28;20139;-58
2023/01/10 11:34:46;;;;;;;37.92;7.70;;;7.00;99.90;;;;;;5039756;28;20136;-58
2023/01/10 11:37:23;;;;;;;34.60;7.93;;;7.00;99.90;;;;;;5040857;28;20045;-59
2023/01/10 11:40:15;;;;;;;37.35;8.85;;;7.00;99.90;;;;;;5041229;28;20045;-59
2023/01/10 11:42:42;;;;;;;38.85;9.48;;;7.00;99.90;;;;;;5040263;28;20080;-60
2023/01/10 11:45:17;;;;;;;31.65;8.73;;;7.00;99.90;;;;;;5018331;28;20153;-59
2023/01/10 11:47:47;;;;;;;36.75;9.02;;;7.00;99.90;;;;;;5044467;28;20037;-59
2023/01/10 11:50:25;;;;;;;38.90;9.45;;;7.00;99.90;;;;;;5042579;28;20045;-59
2023/01/10 11:52:51;;;;;;;35.88;9.18;;;7.10;99.90;;;;;;5040908;28;20101;-59
2023/01/10 11:55:26;;;;;;;38.17;10.10;;;7.00;99.90;;;;;;5038860;28;21398;-58
2023/01/10 11:58:04;;;;;;;34.10;9.10;;;7.00;99.90;;;;;;5042785;28;20492;-59
2023/01/10 12:00:34;;;;;;;30.45;9.77;;;7.00;99.90;;;;;;5023991;28;20080;-60
2023/01/10 12:03:01;;;;;;;32.88;9.55;;;7.00;99.90;;;;;;5036574;28;20047;-58
2023/01/10 12:05:27;;;;;;;45.22;9.73;;;7.00;99.90;;;;;;4997496;28;20049;-60
2023/01/10 12:08:05;;;;;;;37.78;9.77;;;7.00;99.90;;;;;;5036870;28;20125;-58
2023/01/10 12:10:32;;;;;;;34.45;9.30;;;6.90;99.90;;;;;;5036874;28;20110;-60
2023/01/10 12:13:13;;;;;;;33.60;8.85;;;7.00;99.90;;;;;;5038912;28;20131;-60
2023/01/10 12:15:39;;;;;;;30.23;8.32;;;7.00;99.90;;;;;;5037744;28;20084;-58
2023/01/10 12:18:06;;;;;;;38.78;8.23;;;7.00;99.90;;;;;;5042584;28;20079;-58
2023/01/10 12:20:40;;;;;;;28.08;8.57;;;7.00;99.90;;;;;;5041044;28;20066;-58
2023/01/10 12:23:15;;;;;;;30.92;8.50;;;6.90;99.90;;;;;;5021295;28;20111;-59
2023/01/10 12:25:43;;;;;;;34.55;9.15;;;6.90;99.90;;;;;;5040111;28;20703;-60
2023/01/10 12:28:29;;;;;;;39.92;8.23;;;6.90;99.90;;;;;;5035366;28;20033;-59
2023/01/10 12:30:58;;;;;;;25.52;7.72;;;6.90;99.90;;;;;;5037264;28;20063;-58
2023/01/10 12:33:39;;;;;;;40.10;8.88;;;6.90;99.90;;;;;;5038997;28;20421;-60
2023/01/10 12:36:40;;;;;;;28.17;8.20;;;6.90;99.90;;;;;;5040963;28;20502;-59
2023/01/10 12:39:22;;;;;;;31.92;7.95;;;6.90;99.90;;;;;;5023407;28;20440;-59
2023/01/10 12:45:03;;;;;;;25.50;7.78;;;6.90;99.90;;;;;;5038997;28;20107;-58
2023/01/10 12:47:32;;;;;;;36.33;7.10;;;6.90;99.90;;;;;;5040627;28;20076;-59
2023/01/10 12:50:01;;;;;;;36.05;8.13;;;6.90;99.90;;;;;;5023713;28;20051;-58
2023/01/10 12:52:30;;;;;;;29.90;8.88;;;6.90;99.90;;;;;;5043739;28;20119;-59
2023/01/10 12:54:57;;;;;;;32.22;7.97;;;6.90;99.90;;;;;;5046012;28;20059;-58
2023/01/10 12:57:31;;;;;;;25.90;7.18;;;6.90;99.90;;;;;;5028222;28;20064;-59
2023/01/10 13:00:00;;;;;;;32.97;8.55;;;6.80;99.90;;;;;;5042475;28;20041;-58
2023/01/10 13:02:32;;;;;;;37.72;9.13;;;6.80;99.90;;;;;;5045206;28;20056;-59
2023/01/10 13:05:01;;;;;;;33.13;7.83;;;6.90;99.90;;;;;;5045583;28;20049;-58
2023/01/10 13:07:33;;;;;;;31.63;8.15;;;6.80;99.90;;;;;;5040706;28;20316;-58
2023/01/10 13:10:02;;;;;;;33.30;8.02;;;6.80;99.90;;;;;;5045509;28;20037;-59
2023/01/10 13:12:37;;;;;;;31.85;8.55;;;6.80;99.90;;;;;;5046915;28;20041;-59
2023/01/10 13:15:29;;;;;;;25.00;8.40;;;6.80;99.90;;;;;;5044023;28;20053;-58